createdAt,value
2023-02-14T00:00:50.664Z,8.43
2023-02-14T00:03:17.917Z,6.13
2023-02-14T00:05:44.941Z,7.03
2023-02-14T00:08:11.982Z,7.90
2023-02-14T00:10:39.051Z,6.03
2023-02-14T00:13:06.106Z,7.40
2023-02-14T00:15:33.307Z,8.00
2023-02-14T00:18:00.442Z,8.00
2023-02-14T00:20:28.312Z,6.22
2023-02-14T00:22:55.574Z,7.35
2023-02-14T00:25:22.983Z,7.53
2023-02-14T00:27:50.996Z,6.90
2023-02-14T00:30:18.135Z,6.72
2023-02-14T00:32:45.295Z,6.53
2023-02-14T00:35:12.375Z,6.28
2023-02-14T00:37:39.456Z,6.70
2023-02-14T00:40:07.149Z,6.53
2023-02-14T00:42:34.397Z,6.85
2023-02-14T00:45:01.480Z,5.93
2023-02-14T00:47:28.514Z,5.97
2023-02-14T00:49:55.586Z,7.07
2023-02-14T00:52:22.735Z,6.45
2023-02-14T00:54:49.768Z,5.70
2023-02-14T00:57:17.293Z,5.72
2023-02-14T00:59:44.313Z,5.63
2023-02-14T01:02:11.382Z,6.50
2023-02-14T01:04:38.459Z,5.78
2023-02-14T01:07:05.532Z,5.90
2023-02-14T01:09:32.694Z,5.63
2023-02-14T01:11:59.741Z,4.97
2023-02-14T01:14:27.392Z,4.93
2023-02-14T01:16:54.495Z,5.00
2023-02-14T01:19:21.635Z,5.15
2023-02-14T01:21:48.821Z,5.28
2023-02-14T01:24:16.038Z,5.50
2023-02-14T01:26:43.073Z,5.67
2023-02-14T01:29:10.175Z,5.38
2023-02-14T01:31:37.856Z,5.30
2023-02-14T01:34:05.145Z,4.85
2023-02-14T01:36:37.749Z,4.78
2023-02-14T01:39:07.621Z,5.13
2023-02-14T01:41:36.814Z,4.80
2023-02-14T01:44:15.872Z,4.47
2023-02-14T01:46:44.370Z,4.43
2023-02-14T01:49:20.788Z,4.13
2023-02-14T01:52:03.983Z,4.60
2023-02-14T01:54:32.288Z,4.18
2023-02-14T01:57:02.911Z,4.55
2023-02-14T01:59:33.253Z,4.13
2023-02-14T02:02:00.425Z,4.97
2023-02-14T02:04:32.740Z,4.20
2023-02-14T02:07:04.205Z,4.55
2023-02-14T02:09:34.694Z,4.40
2023-02-14T02:12:03.053Z,4.18
2023-02-14T02:14:31.296Z,3.88
2023-02-14T02:17:04.653Z,3.87
2023-02-14T02:20:10.820Z,4.35
2023-02-14T02:23:16.261Z,3.60
2023-02-14T02:26:01.661Z,3.72
2023-02-14T02:28:55.549Z,3.90
2023-02-14T02:31:39.377Z,3.53
2023-02-14T02:34:39.456Z,3.85
2023-02-14T02:37:29.409Z,4.00
2023-02-14T02:40:27.860Z,3.63
2023-02-14T02:43:20.958Z,4.05
2023-02-14T02:46:14.961Z,4.30
2023-02-14T02:48:46.597Z,4.47
2023-02-14T02:51:39.055Z,4.53
2023-02-14T02:54:15.815Z,4.13
2023-02-14T02:56:51.135Z,4.38
2023-02-14T02:59:30.846Z,4.03
2023-02-14T03:02:05.967Z,3.60
2023-02-14T03:04:53.564Z,4.20
2023-02-14T03:07:40.510Z,3.75
2023-02-14T03:10:17.537Z,4.07
2023-02-14T03:13:12.263Z,3.70
2023-02-14T03:15:45.482Z,3.80
2023-02-14T03:18:43.472Z,4.03
2023-02-14T03:21:52.397Z,4.03
2023-02-14T03:24:30.683Z,3.83
2023-02-14T03:27:10.507Z,4.20
2023-02-14T03:29:56.930Z,3.58
2023-02-14T03:32:32.077Z,4.18
2023-02-14T03:35:31.137Z,4.38
2023-02-14T03:38:11.267Z,4.18
2023-02-14T03:41:01.703Z,4.00
2023-02-14T03:43:32.084Z,3.67
2023-02-14T03:46:08.001Z,4.20
2023-02-14T03:48:35.893Z,4.30
2023-02-14T03:51:03.492Z,4.60
2023-02-14T03:53:33.331Z,4.03
2023-02-14T03:56:22.088Z,4.15
2023-02-14T03:58:51.586Z,4.47
2023-02-14T04:01:23.104Z,4.15
2023-02-14T04:03:51.144Z,4.07
2023-02-14T04:06:19.581Z,4.50
2023-02-14T04:08:47.136Z,4.28
2023-02-14T04:11:14.564Z,4.30
2023-02-14T04:13:41.607Z,4.65
2023-02-14T04:16:09.108Z,4.45
2023-02-14T04:18:54.800Z,4.10
2023-02-14T04:21:21.848Z,4.28
2023-02-14T04:23:48.937Z,3.75
2023-02-14T04:26:16.006Z,4.47
2023-02-14T04:28:43.054Z,4.13
2023-02-14T04:31:11.441Z,4.27
2023-02-14T04:33:39.333Z,4.15
2023-02-14T04:36:06.654Z,4.65
2023-02-14T04:38:33.711Z,4.45
2023-02-14T04:41:01.251Z,4.68
2023-02-14T04:43:28.743Z,3.97
2023-02-14T04:45:55.885Z,4.18
2023-02-14T04:48:23.092Z,4.35
2023-02-14T04:50:54.448Z,4.22
2023-02-14T04:53:22.143Z,4.60
2023-02-14T04:55:49.944Z,4.30
2023-02-14T04:58:17.636Z,4.38
2023-02-14T05:00:44.889Z,4.47
2023-02-14T05:03:11.965Z,4.78
2023-02-14T05:05:39.054Z,4.30
2023-02-14T05:08:06.106Z,4.17
2023-02-14T05:10:33.191Z,4.57
2023-02-14T05:13:01.201Z,3.55
2023-02-14T05:15:28.415Z,4.35
2023-02-14T05:17:55.793Z,4.63
2023-02-14T05:20:22.869Z,4.67
2023-02-14T05:22:49.964Z,4.43
2023-02-14T05:25:17.095Z,4.40
2023-02-14T05:27:44.141Z,4.78
2023-02-14T05:30:12.321Z,4.15
2023-02-14T05:32:39.397Z,4.77
2023-02-14T05:35:07.017Z,4.20
2023-02-14T05:37:34.074Z,4.55
2023-02-14T05:40:01.262Z,4.80
2023-02-14T05:42:28.295Z,4.85
2023-02-14T05:44:55.325Z,4.80
2023-02-14T05:47:22.378Z,5.05
2023-02-14T05:49:49.642Z,5.13
2023-02-14T05:52:16.737Z,5.03
2023-02-14T05:54:43.925Z,4.30
2023-02-14T05:57:11.083Z,4.67
2023-02-14T05:59:38.123Z,4.60
2023-02-14T06:02:05.248Z,4.63
2023-02-14T06:04:32.413Z,4.95
2023-02-14T06:06:59.912Z,5.40
2023-02-14T06:09:27.150Z,4.90
2023-02-14T06:11:55.319Z,4.65
2023-02-14T06:14:22.799Z,4.63
2023-02-14T06:16:49.949Z,4.38
2023-02-14T06:19:17.151Z,5.15
2023-02-14T06:21:44.204Z,5.13
2023-02-14T06:24:11.245Z,5.07
2023-02-14T06:26:38.368Z,5.05
2023-02-14T06:29:05.432Z,5.05
2023-02-14T06:31:32.711Z,4.45
2023-02-14T06:33:59.912Z,4.70
2023-02-14T06:36:27.370Z,4.57
2023-02-14T06:38:54.457Z,5.25
2023-02-14T06:41:21.531Z,6.03
2023-02-14T06:43:48.734Z,5.85
2023-02-14T06:46:16.712Z,5.70
2023-02-14T06:48:44.420Z,5.60
2023-02-14T06:51:11.757Z,6.05
2023-02-14T06:53:38.801Z,5.80
2023-02-14T06:56:06.095Z,5.40
2023-02-14T06:58:33.158Z,5.63
2023-02-14T07:01:00.429Z,6.53
2023-02-14T07:03:28.048Z,6.07
2023-02-14T07:05:55.324Z,6.03
2023-02-14T07:08:23.366Z,6.43
2023-02-14T07:10:55.822Z,5.77
2023-02-14T07:13:23.224Z,6.38
2023-02-14T07:15:50.548Z,6.18
2023-02-14T07:18:17.602Z,6.28
2023-02-14T07:20:45.059Z,7.78
2023-02-14T07:23:12.288Z,6.50
2023-02-14T07:25:40.648Z,6.45
2023-02-14T07:28:07.776Z,7.13
2023-02-14T07:30:35.230Z,6.30
2023-02-14T07:33:02.436Z,7.45
2023-02-14T07:35:29.526Z,7.17
2023-02-14T07:37:56.862Z,6.43
2023-02-14T07:40:25.195Z,6.80
2023-02-14T07:42:53.874Z,6.90
2023-02-14T07:45:22.376Z,6.65
2023-02-14T07:47:50.995Z,6.50
2023-02-14T07:50:18.323Z,6.82
2023-02-14T07:52:45.467Z,6.68
2023-02-14T07:55:12.592Z,7.55
2023-02-14T07:57:39.936Z,6.60
2023-02-14T08:00:09.284Z,6.73
2023-02-14T08:02:36.363Z,6.97
2023-02-14T08:05:03.532Z,6.82
2023-02-14T08:07:30.669Z,8.10
2023-02-14T08:09:57.762Z,8.18
2023-02-14T08:12:43.654Z,8.17
2023-02-14T08:15:29.169Z,6.25
2023-02-14T08:17:56.913Z,8.20
2023-02-14T08:20:24.135Z,8.35
2023-02-14T08:22:51.220Z,8.27
2023-02-14T08:25:18.277Z,8.27
2023-02-14T08:27:45.377Z,7.93
2023-02-14T08:30:12.777Z,7.97
2023-02-14T08:32:39.948Z,7.85
2023-02-14T08:35:08.346Z,8.70
2023-02-14T08:37:35.493Z,8.07
2023-02-14T08:40:02.604Z,8.23
2023-02-14T08:42:29.911Z,7.40
2023-02-14T08:44:57.075Z,8.27
2023-02-14T08:47:24.231Z,8.60
2023-02-14T08:49:51.290Z,7.50
2023-02-14T08:52:18.441Z,8.35
2023-02-14T08:54:45.502Z,7.63
2023-02-14T08:57:12.983Z,8.15
2023-02-14T08:59:40.091Z,7.70
2023-02-14T09:02:07.260Z,8.73
2023-02-14T09:04:35.389Z,8.13
2023-02-14T09:07:04.538Z,6.72
2023-02-14T09:09:32.449Z,6.57
2023-02-14T09:12:07.045Z,6.95
2023-02-14T09:14:39.412Z,6.67
2023-02-14T09:17:07.175Z,6.80
2023-02-14T09:19:35.763Z,6.90
2023-02-14T09:22:06.798Z,7.50
2023-02-14T09:24:35.343Z,7.82
2023-02-14T09:27:02.609Z,6.77
2023-02-14T09:29:29.912Z,7.15
2023-02-14T09:31:59.914Z,6.72
2023-02-14T09:34:28.220Z,7.65
2023-02-14T09:36:55.299Z,6.45
2023-02-14T09:39:22.431Z,6.40
2023-02-14T09:41:59.647Z,6.95
2023-02-14T09:44:33.272Z,7.72
2023-02-14T09:47:12.677Z,6.97
2023-02-14T09:49:40.085Z,7.30
2023-02-14T09:52:12.000Z,7.00
2023-02-14T09:54:39.970Z,6.88
2023-02-14T09:57:27.818Z,7.10
2023-02-14T10:00:04.354Z,7.45
2023-02-14T10:02:46.546Z,6.75
2023-02-14T10:05:22.107Z,7.10
2023-02-14T10:08:37.346Z,7.10
2023-02-14T10:11:11.763Z,6.60
2023-02-14T10:13:49.333Z,6.57
2023-02-14T10:16:32.793Z,6.72
2023-02-14T10:19:06.277Z,6.17
2023-02-14T10:21:38.701Z,6.97
2023-02-14T10:24:21.363Z,6.07
2023-02-14T10:26:50.035Z,6.30
2023-02-14T10:29:19.156Z,6.40
2023-02-14T10:31:59.747Z,6.27
2023-02-14T10:34:39.564Z,6.63
2023-02-14T10:37:39.827Z,6.68
2023-02-14T10:40:34.854Z,6.22
2023-02-14T10:43:10.931Z,6.00
2023-02-14T10:45:48.546Z,7.40
2023-02-14T10:48:46.687Z,7.13
2023-02-14T10:51:24.195Z,6.68
2023-02-14T10:54:06.388Z,6.00
2023-02-14T10:56:59.984Z,6.88
2023-02-14T11:00:06.762Z,6.07
2023-02-14T11:02:42.909Z,6.30
2023-02-14T11:05:27.689Z,6.13
2023-02-14T11:07:56.393Z,6.40
2023-02-14T11:10:27.473Z,6.10
2023-02-14T11:12:54.540Z,6.87
2023-02-14T11:15:31.269Z,6.15
2023-02-14T11:18:08.752Z,7.30
2023-02-14T11:20:35.884Z,7.63
2023-02-14T11:23:18.933Z,6.55
2023-02-14T11:25:53.604Z,6.47
2023-02-14T11:28:21.463Z,6.07
2023-02-14T11:30:49.749Z,6.55
2023-02-14T11:33:39.967Z,6.25
2023-02-14T11:36:14.918Z,6.25
2023-02-14T11:38:43.971Z,6.40
2023-02-14T11:41:13.441Z,6.47
2023-02-14T11:43:42.937Z,6.38
2023-02-14T11:46:15.815Z,6.50
2023-02-14T11:49:00.448Z,7.07
2023-02-14T11:51:34.167Z,6.03
2023-02-14T11:54:04.974Z,6.97
2023-02-14T11:56:54.120Z,7.03
2023-02-14T11:59:37.590Z,7.15
2023-02-14T12:02:21.484Z,6.80
2023-02-14T12:04:52.929Z,8.07
2023-02-14T12:07:22.815Z,7.25
2023-02-14T12:10:11.809Z,6.75
2023-02-14T12:13:08.852Z,6.68
2023-02-14T12:15:38.736Z,6.63
2023-02-14T12:18:11.766Z,7.13
2023-02-14T12:20:42.772Z,7.45
2023-02-14T12:23:22.161Z,7.43
2023-02-14T12:25:55.139Z,7.15
2023-02-14T12:28:30.722Z,7.80
2023-02-14T12:30:58.639Z,8.13
2023-02-14T12:33:26.274Z,8.05
2023-02-14T12:36:16.468Z,7.32
2023-02-14T12:39:02.177Z,7.10
2023-02-14T12:42:05.918Z,7.95
2023-02-14T12:44:43.947Z,7.07
2023-02-14T12:47:21.105Z,6.60
2023-02-14T12:50:14.612Z,7.90
2023-02-14T12:53:08.565Z,7.60
2023-02-14T12:55:46.732Z,6.70
2023-02-14T12:58:29.973Z,7.63
2023-02-14T13:01:28.945Z,7.32
2023-02-14T13:04:40.880Z,7.50
2023-02-14T13:07:19.987Z,7.63
2023-02-14T13:09:59.532Z,8.10
2023-02-14T13:12:54.924Z,7.87
2023-02-14T13:15:29.716Z,7.18
2023-02-14T13:18:14.034Z,7.43
2023-02-14T13:20:59.332Z,7.72
2023-02-14T13:23:30.750Z,7.88
2023-02-14T13:26:05.180Z,6.67
2023-02-14T13:28:32.734Z,7.40
2023-02-14T13:31:01.671Z,7.78
2023-02-14T13:33:43.720Z,11.68
2023-02-14T13:36:14.041Z,6.93
2023-02-14T13:38:47.967Z,7.47
2023-02-14T13:41:15.962Z,7.88
2023-02-14T13:43:53.546Z,7.47
2023-02-14T13:46:34.206Z,7.03
2023-02-14T13:49:14.561Z,7.82
2023-02-14T13:51:49.600Z,7.27
2023-02-14T13:54:40.926Z,7.40
2023-02-14T13:57:27.966Z,7.70
2023-02-14T14:00:18.144Z,7.30
2023-02-14T14:02:52.761Z,7.05
2023-02-14T14:05:42.076Z,7.03
2023-02-14T14:08:38.755Z,8.18
2023-02-14T14:11:34.721Z,6.95
2023-02-14T14:14:10.682Z,7.22
2023-02-14T14:16:38.020Z,6.80
2023-02-14T14:19:12.109Z,6.37
2023-02-14T14:21:44.555Z,6.25
2023-02-14T14:24:27.139Z,6.38
2023-02-14T14:26:57.161Z,6.47
2023-02-14T14:29:32.484Z,6.50
2023-02-14T14:32:01.020Z,6.63
2023-02-14T14:34:28.730Z,6.63
2023-02-14T14:37:05.026Z,6.53
2023-02-14T14:39:34.599Z,6.38
2023-02-14T14:42:14.418Z,6.68
2023-02-14T14:44:50.457Z,7.40
2023-02-14T14:47:31.238Z,6.95
2023-02-14T14:50:05.283Z,6.32
2023-02-14T14:52:38.685Z,6.65
2023-02-14T14:55:07.754Z,6.53
2023-02-14T14:57:36.545Z,6.50
2023-02-14T15:00:20.203Z,6.32
2023-02-14T15:02:58.914Z,7.13
2023-02-14T15:05:47.436Z,6.30
2023-02-14T15:08:21.902Z,6.88
2023-02-14T15:11:02.330Z,7.10
2023-02-14T15:13:58.299Z,6.55
2023-02-14T15:16:31.247Z,6.47
2023-02-14T15:19:01.314Z,6.10
2023-02-14T15:21:28.453Z,6.80
2023-02-14T15:23:55.713Z,6.33
2023-02-14T15:26:27.448Z,6.43
2023-02-14T15:29:05.533Z,6.15
2023-02-14T15:31:38.973Z,6.20
2023-02-14T15:34:06.924Z,7.38
2023-02-14T15:36:34.464Z,7.23
2023-02-14T15:39:05.260Z,7.38
2023-02-14T15:41:32.475Z,6.80
2023-02-14T15:43:59.582Z,6.40
2023-02-14T15:46:33.248Z,6.53
2023-02-14T15:49:01.338Z,7.37
2023-02-14T15:51:32.924Z,6.53
2023-02-14T15:54:02.262Z,6.80
2023-02-14T15:56:35.997Z,6.50
2023-02-14T15:59:21.428Z,6.57
2023-02-14T16:01:55.821Z,7.07
2023-02-14T16:04:28.222Z,6.55
2023-02-14T16:07:19.509Z,5.95
2023-02-14T16:09:47.100Z,5.88
2023-02-14T16:12:32.942Z,7.30
2023-02-14T16:15:15.160Z,5.87
2023-02-14T16:17:43.989Z,5.63
2023-02-14T16:20:28.007Z,6.40
2023-02-14T16:23:17.936Z,6.60
2023-02-14T16:25:45.507Z,6.38
2023-02-14T16:28:13.089Z,6.60
2023-02-14T16:30:41.075Z,7.90
2023-02-14T16:33:35.509Z,7.35
2023-02-14T16:36:09.175Z,6.00
2023-02-14T16:38:42.560Z,6.18
2023-02-14T16:41:15.788Z,6.40
2023-02-14T16:43:42.819Z,6.57
2023-02-14T16:46:13.315Z,7.75
2023-02-14T16:48:41.764Z,7.13
2023-02-14T16:51:14.056Z,6.55
2023-02-14T16:53:42.711Z,7.03
2023-02-14T16:56:21.348Z,8.50
2023-02-14T16:58:48.452Z,8.48
2023-02-14T17:01:15.574Z,7.70
2023-02-14T17:03:43.411Z,7.18
2023-02-14T17:06:13.581Z,6.67
2023-02-14T17:08:41.262Z,7.28
2023-02-14T17:11:11.524Z,6.88
2023-02-14T17:13:41.008Z,6.47
2023-02-14T17:16:10.997Z,7.03
2023-02-14T17:18:38.744Z,6.97
2023-02-14T17:21:05.842Z,6.72
2023-02-14T17:23:32.922Z,6.38
2023-02-14T17:25:59.989Z,7.57
2023-02-14T17:28:27.109Z,6.95
2023-02-14T17:30:54.575Z,6.80
2023-02-14T17:33:22.876Z,6.63
2023-02-14T17:35:51.308Z,6.45
2023-02-14T17:38:19.625Z,6.40
2023-02-14T17:40:46.701Z,6.82
2023-02-14T17:43:13.815Z,7.60
2023-02-14T17:45:40.898Z,7.40
2023-02-14T17:48:09.675Z,8.02
2023-02-14T17:50:38.520Z,7.65
2023-02-14T17:53:05.555Z,7.63
2023-02-14T17:55:32.752Z,8.33
2023-02-14T17:57:59.830Z,7.43
2023-02-14T18:00:26.884Z,7.65
2023-02-14T18:02:54.077Z,8.05
2023-02-14T18:05:21.835Z,8.23
2023-02-14T18:07:51.206Z,7.53
2023-02-14T18:10:18.277Z,8.50
2023-02-14T18:12:45.416Z,9.18
2023-02-14T18:15:12.530Z,8.32
2023-02-14T18:17:39.711Z,9.35
2023-02-14T18:20:07.457Z,9.17
2023-02-14T18:22:34.786Z,9.20
2023-02-14T18:25:01.882Z,9.50
2023-02-14T18:27:28.914Z,10.05
2023-02-14T18:29:56.004Z,9.98
2023-02-14T18:32:23.104Z,9.40
2023-02-14T18:34:51.120Z,10.45
2023-02-14T18:37:18.352Z,10.60
2023-02-14T18:39:45.438Z,10.00
2023-02-14T18:42:12.469Z,10.48
2023-02-14T18:44:39.556Z,9.50
2023-02-14T18:47:07.194Z,9.70
2023-02-14T18:49:34.395Z,9.38
2023-02-14T18:52:01.605Z,9.77
2023-02-14T18:54:28.674Z,9.98
2023-02-14T18:56:55.724Z,9.60
2023-02-14T18:59:22.783Z,9.40
2023-02-14T19:01:49.979Z,8.98
2023-02-14T19:04:17.913Z,10.10
2023-02-14T19:06:45.663Z,10.48
2023-02-14T19:09:14.659Z,8.70
2023-02-14T19:11:41.789Z,10.15
2023-02-14T19:14:13.306Z,9.15
2023-02-14T19:16:50.571Z,9.30
2023-02-14T19:19:18.511Z,9.00
2023-02-14T19:21:45.881Z,10.43
2023-02-14T19:24:16.682Z,10.38
2023-02-14T19:26:44.166Z,10.00
2023-02-14T19:29:14.191Z,11.00
2023-02-14T19:31:43.823Z,10.85
2023-02-14T19:34:22.543Z,10.57
2023-02-14T19:36:51.419Z,10.95
2023-02-14T19:39:19.987Z,10.85
2023-02-14T19:41:47.679Z,10.90
2023-02-14T19:44:16.848Z,11.93
2023-02-14T19:46:46.115Z,11.10
2023-02-14T19:49:16.600Z,10.85
2023-02-14T19:51:44.923Z,10.00
2023-02-14T19:54:12.696Z,9.95
2023-02-14T19:56:42.586Z,9.65
2023-02-14T19:59:10.419Z,10.77
2023-02-14T20:01:46.333Z,10.77
2023-02-14T20:04:16.077Z,10.73
2023-02-14T20:06:45.615Z,10.63
2023-02-14T20:09:14.140Z,11.48
2023-02-14T20:11:49.981Z,11.03
2023-02-14T20:14:22.858Z,11.90
2023-02-14T20:16:50.632Z,12.10
2023-02-14T20:19:19.789Z,11.70
2023-02-14T20:21:49.863Z,12.02
2023-02-14T20:24:26.158Z,10.73
2023-02-14T20:26:54.083Z,11.38
2023-02-14T20:29:22.679Z,12.93
2023-02-14T20:31:52.697Z,12.10
2023-02-14T20:34:21.114Z,12.82
2023-02-14T20:36:55.780Z,12.57
2023-02-14T20:39:27.938Z,11.55
2023-02-14T20:41:55.007Z,11.40
2023-02-14T20:44:22.166Z,11.70
2023-02-14T20:46:52.176Z,11.88
2023-02-14T20:49:20.717Z,11.87
2023-02-14T20:51:49.673Z,13.98
2023-02-14T20:54:18.202Z,12.45
2023-02-14T20:56:45.793Z,11.43
2023-02-14T20:59:13.058Z,11.40
2023-02-14T21:01:40.157Z,11.07
2023-02-14T21:04:07.465Z,11.68
2023-02-14T21:06:35.598Z,10.75
2023-02-14T21:09:03.203Z,11.00
2023-02-14T21:11:30.403Z,12.38
2023-02-14T21:13:59.954Z,12.37
2023-02-14T21:16:28.514Z,11.93
2023-02-14T21:18:59.176Z,11.85
2023-02-14T21:21:30.114Z,10.20
2023-02-14T21:23:57.173Z,11.25
2023-02-14T21:26:24.790Z,10.90
2023-02-14T21:28:52.280Z,12.57
2023-02-14T21:31:25.467Z,10.65
2023-02-14T21:33:54.423Z,11.27
2023-02-14T21:36:23.394Z,10.88
2023-02-14T21:38:50.744Z,9.83
2023-02-14T21:41:23.667Z,11.25
2023-02-14T21:43:57.870Z,11.82
2023-02-14T21:46:29.360Z,10.65
2023-02-14T21:49:17.136Z,11.23
2023-02-14T21:51:44.775Z,10.80
2023-02-14T21:54:12.182Z,11.85
2023-02-14T21:56:41.197Z,10.77
2023-02-14T21:59:09.614Z,9.70
2023-02-14T22:01:38.650Z,10.60
2023-02-14T22:04:10.605Z,10.87
2023-02-14T22:06:39.254Z,10.20
2023-02-14T22:09:06.963Z,9.88
2023-02-14T22:11:35.016Z,10.95
2023-02-14T22:14:02.345Z,9.32
2023-02-14T22:16:29.426Z,11.30
2023-02-14T22:18:56.540Z,11.35
2023-02-14T22:21:25.393Z,9.93
2023-02-14T22:23:54.056Z,9.90
2023-02-14T22:26:23.340Z,10.57
2023-02-14T22:28:52.107Z,10.97
2023-02-14T22:31:20.610Z,11.40
2023-02-14T22:33:49.974Z,9.13
2023-02-14T22:36:17.092Z,10.30
2023-02-14T22:38:44.344Z,10.85
2023-02-14T22:41:16.472Z,10.67
2023-02-14T22:43:44.111Z,10.00
2023-02-14T22:46:20.500Z,10.95
2023-02-14T22:48:49.140Z,11.13
2023-02-14T22:51:32.627Z,10.52
2023-02-14T22:54:09.955Z,10.93
2023-02-14T22:56:40.131Z,9.93
2023-02-14T22:59:17.853Z,10.77
2023-02-14T23:01:45.752Z,10.23
2023-02-14T23:04:13.337Z,10.82
2023-02-14T23:06:40.676Z,11.80
2023-02-14T23:09:09.298Z,11.65
2023-02-14T23:11:37.659Z,11.13
2023-02-14T23:14:24.169Z,11.88
2023-02-14T23:17:10.540Z,10.73
2023-02-14T23:19:56.608Z,12.53
2023-02-14T23:22:29.697Z,11.40
2023-02-14T23:24:58.988Z,12.13
2023-02-14T23:27:38.739Z,12.88
2023-02-14T23:30:08.654Z,12.38
2023-02-14T23:32:36.338Z,11.47
2023-02-14T23:35:03.680Z,11.68
2023-02-14T23:37:30.812Z,10.85
2023-02-14T23:39:57.977Z,11.35
2023-02-14T23:42:25.420Z,11.38
2023-02-14T23:44:52.796Z,11.00
2023-02-14T23:47:19.990Z,11.55
2023-02-14T23:49:47.426Z,12.10
2023-02-14T23:52:14.803Z,13.18
2023-02-14T23:54:42.225Z,12.45
2023-02-14T23:57:09.487Z,12.33
2023-02-14T23:59:36.626Z,12.77
